createdAt,value
2022-10-19T00:00:45.356Z,92.00
2022-10-19T00:03:08.735Z,92.40
2022-10-19T00:05:33.291Z,91.80
2022-10-19T00:07:56.788Z,92.20
2022-10-19T00:10:20.192Z,92.40
2022-10-19T00:12:43.469Z,92.00
2022-10-19T00:15:08.344Z,92.20
2022-10-19T00:17:31.948Z,92.10
2022-10-19T00:19:55.412Z,92.20
2022-10-19T00:22:20.089Z,92.40
2022-10-19T00:24:43.455Z,92.20
2022-10-19T00:27:07.088Z,92.50
2022-10-19T00:29:30.427Z,92.60
2022-10-19T00:31:54.197Z,92.40
2022-10-19T00:34:17.542Z,92.50
2022-10-19T00:36:41.941Z,92.20
2022-10-19T00:39:10.047Z,92.50
2022-10-19T00:41:36.823Z,92.30
2022-10-19T00:44:03.447Z,92.40
2022-10-19T00:46:28.377Z,92.30
2022-10-19T00:48:55.321Z,92.30
2022-10-19T00:51:19.071Z,92.10
2022-10-19T00:53:42.763Z,92.10
2022-10-19T00:56:14.384Z,92.60
2022-10-19T00:58:37.870Z,92.60
2022-10-19T01:01:04.583Z,92.40
2022-10-19T01:03:28.021Z,92.20
2022-10-19T01:05:51.632Z,92.20
2022-10-19T01:08:15.347Z,92.50
2022-10-19T01:10:48.896Z,92.80
2022-10-19T01:13:31.981Z,92.60
2022-10-19T01:16:02.970Z,92.60
2022-10-19T01:18:40.316Z,92.10
2022-10-19T01:21:26.089Z,92.40
2022-10-19T01:24:43.343Z,92.70
2022-10-19T01:27:42.868Z,92.40
2022-10-19T01:30:16.604Z,92.30
2022-10-19T01:32:58.078Z,92.30
2022-10-19T01:35:30.011Z,92.50
2022-10-19T01:38:14.922Z,92.60
2022-10-19T01:40:48.042Z,92.60
2022-10-19T01:43:20.087Z,92.40
2022-10-19T01:45:51.812Z,92.50
2022-10-19T01:48:20.538Z,92.30
2022-10-19T01:50:51.976Z,92.60
2022-10-19T01:53:18.624Z,92.10
2022-10-19T01:55:46.188Z,92.20
2022-10-19T01:58:15.032Z,92.30
2022-10-19T02:00:44.670Z,92.10
2022-10-19T02:03:10.601Z,92.40
2022-10-19T02:05:36.845Z,92.80
2022-10-19T02:08:02.974Z,92.60
2022-10-19T02:10:27.001Z,92.60
2022-10-19T02:12:51.202Z,92.30
2022-10-19T02:15:18.627Z,92.70
2022-10-19T02:17:48.802Z,92.70
2022-10-19T02:20:12.860Z,92.80
2022-10-19T02:22:36.472Z,92.60
2022-10-19T02:25:00.059Z,92.40
2022-10-19T02:27:23.665Z,92.60
2022-10-19T02:29:47.610Z,92.90
2022-10-19T02:32:11.263Z,92.90
2022-10-19T02:34:37.756Z,92.80
2022-10-19T02:37:01.071Z,92.80
2022-10-19T02:39:24.981Z,92.80
2022-10-19T02:41:54.720Z,92.80
2022-10-19T02:44:24.423Z,92.70
2022-10-19T02:46:51.415Z,92.30
2022-10-19T02:49:15.624Z,92.70
2022-10-19T02:51:55.884Z,92.50
2022-10-19T02:54:19.130Z,92.40
2022-10-19T02:56:42.344Z,92.40
2022-10-19T02:59:05.981Z,92.50
2022-10-19T03:01:29.273Z,92.70
2022-10-19T03:03:53.017Z,92.40
2022-10-19T03:06:16.250Z,92.50
2022-10-19T03:08:40.915Z,92.70
2022-10-19T03:11:04.205Z,92.80
2022-10-19T03:13:27.670Z,93.00
2022-10-19T03:15:51.183Z,92.80
2022-10-19T03:18:14.455Z,93.00
2022-10-19T03:20:37.728Z,92.90
2022-10-19T03:23:00.976Z,93.00
2022-10-19T03:25:25.623Z,93.40
2022-10-19T03:27:49.680Z,94.10
2022-10-19T03:30:13.105Z,94.30
2022-10-19T03:32:36.332Z,94.30
2022-10-19T03:34:59.475Z,94.60
2022-10-19T03:37:22.743Z,94.50
2022-10-19T03:39:45.944Z,94.80
2022-10-19T03:42:10.523Z,95.00
2022-10-19T03:44:33.789Z,94.80
2022-10-19T03:46:57.006Z,94.90
2022-10-19T03:49:20.425Z,94.90
2022-10-19T03:51:43.768Z,95.30
2022-10-19T03:54:13.195Z,95.20
2022-10-19T03:56:37.376Z,95.10
2022-10-19T03:59:04.194Z,95.20
2022-10-19T04:01:29.766Z,95.00
2022-10-19T04:03:54.921Z,94.90
2022-10-19T04:06:22.092Z,95.10
2022-10-19T04:08:46.378Z,95.00
2022-10-19T04:11:12.836Z,95.00
2022-10-19T04:13:36.973Z,95.00
2022-10-19T04:16:01.983Z,95.10
2022-10-19T04:18:25.292Z,95.10
2022-10-19T04:20:48.566Z,95.00
2022-10-19T04:23:11.899Z,95.20
2022-10-19T04:25:35.107Z,95.10
2022-10-19T04:27:58.275Z,95.30
2022-10-19T04:30:21.491Z,95.20
2022-10-19T04:32:46.045Z,95.00
2022-10-19T04:35:09.718Z,95.10
2022-10-19T04:37:33.170Z,95.10
2022-10-19T04:39:56.507Z,95.00
2022-10-19T04:42:19.728Z,95.00
2022-10-19T04:44:42.914Z,94.80
2022-10-19T04:47:06.133Z,94.80
2022-10-19T04:49:30.752Z,94.80
2022-10-19T04:51:54.009Z,94.70
2022-10-19T04:54:17.736Z,94.70
2022-10-19T04:56:41.296Z,94.60
2022-10-19T04:59:04.571Z,94.70
2022-10-19T05:01:31.403Z,94.70
2022-10-19T05:06:21.773Z,94.80
2022-10-19T05:08:45.455Z,94.80
2022-10-19T05:11:14.089Z,94.90
2022-10-19T05:13:39.031Z,94.70
2022-10-19T05:16:05.513Z,94.80
2022-10-19T05:18:29.262Z,94.60
2022-10-19T05:20:52.888Z,94.60
2022-10-19T05:23:17.543Z,94.80
2022-10-19T05:25:40.736Z,94.70
2022-10-19T05:28:04.036Z,94.60
2022-10-19T05:30:27.806Z,94.60
2022-10-19T05:32:51.134Z,94.60
2022-10-19T05:35:17.506Z,94.50
2022-10-19T05:37:43.379Z,94.20
2022-10-19T05:40:11.245Z,94.30
2022-10-19T05:42:34.773Z,94.40
2022-10-19T05:44:58.208Z,94.50
2022-10-19T05:47:21.598Z,94.40
2022-10-19T05:49:45.149Z,94.50
2022-10-19T05:52:08.622Z,94.60
2022-10-19T05:54:32.780Z,94.50
2022-10-19T05:56:57.726Z,94.60
2022-10-19T05:59:22.954Z,94.60
2022-10-19T06:01:46.904Z,94.50
2022-10-19T06:04:11.021Z,94.50
2022-10-19T06:06:35.175Z,94.70
2022-10-19T06:08:59.511Z,94.60
2022-10-19T06:11:25.208Z,94.70
2022-10-19T06:13:52.129Z,94.80
2022-10-19T06:16:17.538Z,94.70
2022-10-19T06:18:41.915Z,94.70
2022-10-19T06:21:07.652Z,94.80
2022-10-19T06:23:31.223Z,94.70
2022-10-19T06:25:54.645Z,94.70
2022-10-19T06:28:17.924Z,94.70
2022-10-19T06:30:42.766Z,94.60
2022-10-19T06:33:06.152Z,94.70
2022-10-19T06:35:29.449Z,94.30
2022-10-19T06:37:52.819Z,94.50
2022-10-19T06:40:16.374Z,94.40
2022-10-19T06:42:40.027Z,94.50
2022-10-19T06:45:03.403Z,94.30
2022-10-19T06:47:33.222Z,94.20
2022-10-19T06:49:56.699Z,94.20
2022-10-19T06:52:19.939Z,94.40
2022-10-19T06:54:43.195Z,94.40
2022-10-19T06:57:07.996Z,94.60
2022-10-19T06:59:31.710Z,94.60
2022-10-19T07:01:55.010Z,94.60
2022-10-19T07:04:19.613Z,94.50
2022-10-19T07:06:42.906Z,95.10
2022-10-19T07:09:06.208Z,94.90
2022-10-19T07:11:29.723Z,94.80
2022-10-19T07:13:54.406Z,94.70
2022-10-19T07:16:21.504Z,94.90
2022-10-19T07:18:45.146Z,94.90
2022-10-19T07:21:12.544Z,95.00
2022-10-19T07:23:38.580Z,94.80
2022-10-19T07:26:07.047Z,94.60
2022-10-19T07:28:31.177Z,94.60
2022-10-19T07:30:54.438Z,93.90
2022-10-19T07:35:45.873Z,94.00
2022-10-19T07:38:10.596Z,93.20
2022-10-19T07:40:34.015Z,92.50
2022-10-19T07:42:57.370Z,92.60
2022-10-19T07:45:20.749Z,92.30
2022-10-19T07:47:44.001Z,92.00
2022-10-19T07:50:07.839Z,91.40
2022-10-19T07:52:33.126Z,91.40
2022-10-19T07:55:01.253Z,91.20
2022-10-19T07:57:24.464Z,90.20
2022-10-19T07:59:47.679Z,90.60
2022-10-19T08:02:17.250Z,89.90
2022-10-19T08:04:59.491Z,89.90
2022-10-19T08:07:23.882Z,89.40
2022-10-19T08:09:53.134Z,88.10
2022-10-19T08:12:18.168Z,89.30
2022-10-19T08:14:41.539Z,88.70
2022-10-19T08:17:04.852Z,88.80
2022-10-19T08:19:28.390Z,88.50
2022-10-19T08:21:52.028Z,88.00
2022-10-19T08:24:17.904Z,87.60
2022-10-19T08:26:41.950Z,86.70
2022-10-19T08:29:09.217Z,87.30
2022-10-19T08:31:33.159Z,86.80
2022-10-19T08:33:56.554Z,87.20
2022-10-19T08:36:21.312Z,86.30
2022-10-19T08:38:45.111Z,86.00
2022-10-19T08:41:26.070Z,85.80
2022-10-19T08:44:06.374Z,85.70
2022-10-19T08:46:42.973Z,85.10
2022-10-19T08:49:06.379Z,84.80
2022-10-19T08:51:34.116Z,84.70
2022-10-19T08:54:01.174Z,83.50
2022-10-19T08:56:51.497Z,84.20
2022-10-19T08:59:29.141Z,82.30
2022-10-19T09:01:56.880Z,82.00
2022-10-19T09:04:25.403Z,81.30
2022-10-19T09:07:01.191Z,81.70
2022-10-19T09:09:26.101Z,81.90
2022-10-19T09:11:52.755Z,79.40
2022-10-19T09:14:22.872Z,80.60
2022-10-19T09:16:46.342Z,78.90
2022-10-19T09:19:21.921Z,80.30
2022-10-19T09:21:51.779Z,80.30
2022-10-19T09:24:31.418Z,78.70
2022-10-19T09:26:57.852Z,79.60
2022-10-19T09:29:31.369Z,78.20
2022-10-19T09:34:33.809Z,79.00
2022-10-19T09:36:59.980Z,80.00
2022-10-19T09:39:25.707Z,77.70
2022-10-19T09:41:55.876Z,77.90
2022-10-19T09:44:19.591Z,76.40
2022-10-19T09:46:52.268Z,77.60
2022-10-19T09:49:15.744Z,76.20
2022-10-19T09:51:51.630Z,75.60
2022-10-19T09:54:27.598Z,74.60
2022-10-19T09:56:57.255Z,74.90
2022-10-19T09:59:25.039Z,74.70
2022-10-19T10:01:48.416Z,75.00
2022-10-19T10:04:17.719Z,74.40
2022-10-19T10:06:44.064Z,75.40
2022-10-19T10:09:08.086Z,72.30
2022-10-19T10:20:21.629Z,73.10
2022-10-19T10:22:58.585Z,72.20
2022-10-19T10:25:22.931Z,71.70
2022-10-19T10:27:57.844Z,71.80
2022-10-19T10:30:21.535Z,72.90
2022-10-19T10:32:49.693Z,72.90
2022-10-19T10:35:21.101Z,71.70
2022-10-19T10:37:47.835Z,71.30
2022-10-19T10:40:23.872Z,72.50
2022-10-19T10:42:49.553Z,73.10
2022-10-19T10:45:20.837Z,71.60
2022-10-19T10:47:48.158Z,72.50
2022-10-19T10:50:22.528Z,72.20
2022-10-19T10:53:00.884Z,70.60
2022-10-19T10:55:26.481Z,73.30
2022-10-19T10:57:54.733Z,72.10
2022-10-19T11:00:21.327Z,72.20
2022-10-19T11:02:49.414Z,70.60
2022-10-19T11:05:19.759Z,69.90
2022-10-19T11:07:46.849Z,69.90
2022-10-19T11:10:24.718Z,70.00
2022-10-19T11:12:55.112Z,70.10
2022-10-19T11:15:24.114Z,68.70
2022-10-19T11:17:58.733Z,68.80
2022-10-19T11:20:24.202Z,70.10
2022-10-19T11:22:54.077Z,69.40
2022-10-19T11:25:38.804Z,68.50
2022-10-19T11:28:19.497Z,67.80
2022-10-19T11:30:58.742Z,69.80
2022-10-19T11:33:45.589Z,69.40
2022-10-19T11:36:22.542Z,68.70
2022-10-19T11:38:59.199Z,69.10
2022-10-19T11:41:39.250Z,67.50
2022-10-19T11:44:27.069Z,66.90
2022-10-19T11:47:07.303Z,66.40
2022-10-19T11:49:46.891Z,67.20
2022-10-19T11:52:17.990Z,66.30
2022-10-19T11:54:55.890Z,66.20
2022-10-19T11:57:27.367Z,67.10
2022-10-19T12:00:14.973Z,66.70
2022-10-19T12:03:10.645Z,67.80
2022-10-19T12:05:43.205Z,66.90
2022-10-19T12:08:29.976Z,66.30
2022-10-19T12:11:03.403Z,66.40
2022-10-19T12:13:37.706Z,65.70
2022-10-19T12:16:02.249Z,66.30
2022-10-19T12:18:33.427Z,66.10
2022-10-19T12:21:01.096Z,65.60
2022-10-19T12:23:29.150Z,65.40
2022-10-19T12:25:53.699Z,64.60
2022-10-19T12:28:24.205Z,66.60
2022-10-19T12:30:49.748Z,66.90
2022-10-19T12:33:22.261Z,65.70
2022-10-19T12:36:07.504Z,65.60
2022-10-19T12:38:46.070Z,65.80
2022-10-19T12:41:21.514Z,65.60
2022-10-19T12:43:59.728Z,66.00
2022-10-19T12:46:35.603Z,66.80
2022-10-19T12:49:38.392Z,67.40
2022-10-19T12:52:02.924Z,66.70
2022-10-19T12:54:28.880Z,66.00
2022-10-19T12:56:54.656Z,66.50
2022-10-19T12:59:25.431Z,67.10
2022-10-19T13:01:50.129Z,65.30
2022-10-19T13:04:17.933Z,65.80
2022-10-19T13:06:44.502Z,66.70
2022-10-19T13:09:11.198Z,66.70
2022-10-19T13:14:07.049Z,67.50
2022-10-19T13:16:42.587Z,66.50
2022-10-19T13:19:23.025Z,66.00
2022-10-19T13:22:26.565Z,66.60
2022-10-19T13:25:21.735Z,65.10
2022-10-19T13:27:46.266Z,67.20
2022-10-19T13:31:05.816Z,66.70
2022-10-19T13:33:53.696Z,66.00
2022-10-19T13:36:19.719Z,67.80
2022-10-19T13:38:45.109Z,66.50
2022-10-19T13:41:13.767Z,66.80
2022-10-19T13:43:50.426Z,68.00
2022-10-19T13:46:17.288Z,69.20
2022-10-19T13:49:32.501Z,68.20
2022-10-19T13:52:14.411Z,67.30
2022-10-19T13:54:57.875Z,67.20
2022-10-19T13:57:32.270Z,67.00
2022-10-19T14:00:16.196Z,66.50
2022-10-19T14:02:59.947Z,66.90
2022-10-19T14:05:58.803Z,68.30
2022-10-19T14:08:44.597Z,67.80
2022-10-19T14:11:15.474Z,68.20
2022-10-19T14:13:39.136Z,67.80
2022-10-19T14:16:03.052Z,68.30
2022-10-19T14:18:29.794Z,67.20
2022-10-19T14:20:59.324Z,68.20
2022-10-19T14:23:28.465Z,67.30
2022-10-19T14:25:53.395Z,67.80
2022-10-19T14:28:17.496Z,68.80
2022-10-19T14:30:45.335Z,69.90
2022-10-19T14:33:11.403Z,69.10
2022-10-19T14:35:38.140Z,69.00
2022-10-19T14:38:02.033Z,68.70
2022-10-19T14:40:30.821Z,68.80
2022-10-19T14:42:54.175Z,68.90
2022-10-19T14:45:21.457Z,69.90
2022-10-19T14:48:04.773Z,69.10
2022-10-19T14:50:39.280Z,70.00
2022-10-19T14:53:17.994Z,68.50
2022-10-19T14:55:43.612Z,68.60
2022-10-19T14:58:14.215Z,68.30
2022-10-19T15:00:37.626Z,68.70
2022-10-19T15:03:05.427Z,69.80
2022-10-19T15:05:32.889Z,69.50
2022-10-19T15:07:56.945Z,68.70
2022-10-19T15:10:24.785Z,69.40
2022-10-19T15:12:52.658Z,69.10
2022-10-19T15:15:21.036Z,69.60
2022-10-19T15:17:55.257Z,68.80
2022-10-19T15:20:28.986Z,70.20
2022-10-19T15:22:52.390Z,69.40
2022-10-19T15:25:30.284Z,70.70
2022-10-19T15:27:55.321Z,69.90
2022-10-19T15:30:28.598Z,70.10
2022-10-19T15:32:57.624Z,69.40
2022-10-19T15:35:27.579Z,69.40
2022-10-19T15:37:51.953Z,70.80
2022-10-19T15:40:24.487Z,70.10
2022-10-19T15:42:48.946Z,70.20
2022-10-19T15:45:39.254Z,70.60
2022-10-19T15:48:30.573Z,70.60
2022-10-19T15:50:54.691Z,70.40
2022-10-19T15:53:18.163Z,71.10
2022-10-19T15:55:41.575Z,72.40
2022-10-19T15:58:04.868Z,72.50
2022-10-19T16:00:30.562Z,73.10
2022-10-19T16:02:55.540Z,73.70
2022-10-19T16:05:18.938Z,73.30
2022-10-19T16:07:43.050Z,73.70
2022-10-19T16:10:08.312Z,73.30
2022-10-19T16:12:31.512Z,74.10
2022-10-19T16:14:55.510Z,75.00
2022-10-19T16:17:18.806Z,75.00
2022-10-19T16:19:44.398Z,74.80
2022-10-19T16:22:07.784Z,75.00
2022-10-19T16:24:30.998Z,74.90
2022-10-19T16:26:54.324Z,74.60
2022-10-19T16:29:17.704Z,74.90
2022-10-19T16:31:40.991Z,75.30
2022-10-19T16:34:04.305Z,75.30
2022-10-19T16:36:28.891Z,75.20
2022-10-19T16:38:52.171Z,75.70
2022-10-19T16:41:16.044Z,75.30
2022-10-19T16:43:39.824Z,76.00
2022-10-19T16:46:03.684Z,75.50
2022-10-19T16:48:27.205Z,76.30
2022-10-19T16:51:38.781Z,76.30
2022-10-19T16:54:02.185Z,76.30
2022-10-19T16:56:28.972Z,76.60
2022-10-19T16:58:56.109Z,77.00
2022-10-19T17:01:21.299Z,76.80
2022-10-19T17:03:44.667Z,76.80
2022-10-19T17:06:09.799Z,76.70
2022-10-19T17:09:07.434Z,77.30
2022-10-19T17:11:21.623Z,77.40
2022-10-19T17:13:47.853Z,77.30
2022-10-19T17:16:12.433Z,77.60
2022-10-19T17:18:36.026Z,77.50
2022-10-19T17:21:04.691Z,78.10
2022-10-19T17:23:28.622Z,78.60
2022-10-19T17:25:53.637Z,78.30
2022-10-19T17:28:16.952Z,77.90
2022-10-19T17:30:42.420Z,78.00
2022-10-19T17:33:05.786Z,78.30
2022-10-19T17:35:28.968Z,78.80
2022-10-19T17:37:52.205Z,78.70
2022-10-19T17:40:15.474Z,79.40
2022-10-19T17:42:40.053Z,78.90
2022-10-19T17:45:03.360Z,79.40
2022-10-19T17:47:26.671Z,79.10
2022-10-19T17:49:49.878Z,79.40
2022-10-19T17:52:13.075Z,79.40
2022-10-19T17:54:43.698Z,79.50
2022-10-19T17:57:17.668Z,79.30
2022-10-19T17:59:52.516Z,79.40
2022-10-19T18:02:16.325Z,79.80
2022-10-19T18:04:39.775Z,79.80
2022-10-19T18:07:03.243Z,80.40
2022-10-19T18:09:26.399Z,80.30
2022-10-19T18:11:49.866Z,80.60
2022-10-19T18:14:14.088Z,80.40
2022-10-19T18:16:41.708Z,80.50
2022-10-19T18:19:06.351Z,80.60
2022-10-19T18:21:33.521Z,80.90
2022-10-19T18:23:59.433Z,80.90
2022-10-19T18:26:25.893Z,81.30
2022-10-19T18:28:50.149Z,81.50
2022-10-19T18:31:16.001Z,82.00
2022-10-19T18:33:41.557Z,81.70
2022-10-19T18:36:07.001Z,81.90
2022-10-19T18:38:30.235Z,81.90
2022-10-19T18:40:53.474Z,82.50
2022-10-19T18:43:16.724Z,82.40
2022-10-19T18:45:39.943Z,83.00
2022-10-19T18:48:03.159Z,82.40
2022-10-19T18:50:27.786Z,82.40
2022-10-19T18:52:51.005Z,82.90
2022-10-19T18:55:14.271Z,82.80
2022-10-19T18:57:37.541Z,83.00
2022-10-19T19:00:00.865Z,83.00
2022-10-19T19:02:34.701Z,83.10
2022-10-19T19:04:58.752Z,83.30
2022-10-19T19:07:23.372Z,83.30
2022-10-19T19:09:46.625Z,83.70
2022-10-19T19:12:10.106Z,83.80
2022-10-19T19:14:33.350Z,83.70
2022-10-19T19:16:56.666Z,83.90
2022-10-19T19:19:20.841Z,84.30
2022-10-19T19:21:45.025Z,84.30
2022-10-19T19:24:09.779Z,84.40
2022-10-19T19:26:36.034Z,84.60
2022-10-19T19:28:59.625Z,84.90
2022-10-19T19:31:22.841Z,85.10
2022-10-19T19:33:47.694Z,85.10
2022-10-19T19:36:14.789Z,85.70
2022-10-19T19:38:38.084Z,85.10
2022-10-19T19:41:05.750Z,85.20
2022-10-19T19:43:29.221Z,85.20
2022-10-19T19:45:57.814Z,85.40
2022-10-19T19:48:21.034Z,85.50
2022-10-19T19:50:48.348Z,85.40
2022-10-19T19:53:11.555Z,85.70
2022-10-19T19:55:38.900Z,86.00
2022-10-19T19:58:03.896Z,85.80
2022-10-19T20:00:27.210Z,86.00
2022-10-19T20:02:53.823Z,86.00
2022-10-19T20:05:17.244Z,86.50
2022-10-19T20:07:40.547Z,86.20
2022-10-19T20:10:03.789Z,86.30
2022-10-19T20:12:27.491Z,86.10
2022-10-19T20:14:52.218Z,86.40
2022-10-19T20:17:15.501Z,86.70
2022-10-19T20:19:38.944Z,86.90
2022-10-19T20:22:02.177Z,86.50
2022-10-19T20:24:25.379Z,86.50
2022-10-19T20:26:48.673Z,86.90
2022-10-19T20:29:11.938Z,86.70
2022-10-19T20:31:39.625Z,87.00
2022-10-19T20:34:11.147Z,86.90
2022-10-19T20:36:35.741Z,86.80
2022-10-19T20:38:59.920Z,87.00
2022-10-19T20:41:25.908Z,87.10
2022-10-19T20:43:49.574Z,87.10
2022-10-19T20:46:15.330Z,87.00
2022-10-19T20:48:40.841Z,87.00
2022-10-19T20:51:16.129Z,87.40
2022-10-19T20:53:39.923Z,87.10
2022-10-19T20:56:06.336Z,87.20
2022-10-19T20:58:29.549Z,87.40
2022-10-19T21:00:52.732Z,87.30
2022-10-19T21:03:15.995Z,87.30
2022-10-19T21:05:40.696Z,87.50
2022-10-19T21:08:04.408Z,87.50
2022-10-19T21:10:27.656Z,87.30
2022-10-19T21:12:50.909Z,87.30
2022-10-19T21:15:14.311Z,87.40
2022-10-19T21:17:37.606Z,87.10
2022-10-19T21:20:00.849Z,87.00
2022-10-19T21:22:25.436Z,86.80
2022-10-19T21:24:48.706Z,86.70
2022-10-19T21:27:14.133Z,86.80
2022-10-19T21:29:37.763Z,86.70
2022-10-19T21:32:01.206Z,86.40
2022-10-19T21:34:26.571Z,86.40
2022-10-19T21:36:50.952Z,86.40
2022-10-19T21:39:15.776Z,86.10
2022-10-19T21:41:39.113Z,86.00
2022-10-19T21:44:02.819Z,86.20
2022-10-19T21:46:26.770Z,86.20
2022-10-19T21:48:50.680Z,86.70
2022-10-19T21:51:24.271Z,86.40
2022-10-19T21:53:47.501Z,86.80
2022-10-19T21:56:12.087Z,86.70
2022-10-19T21:58:35.391Z,87.10
2022-10-19T22:01:05.810Z,87.20
2022-10-19T22:03:29.098Z,87.10
2022-10-19T22:05:53.065Z,87.60
2022-10-19T22:08:16.541Z,87.80
2022-10-19T22:10:39.818Z,87.70
2022-10-19T22:13:04.543Z,87.90
2022-10-19T22:15:27.797Z,88.00
2022-10-19T22:17:51.086Z,88.30
2022-10-19T22:20:14.283Z,88.20
2022-10-19T22:22:37.842Z,88.40
2022-10-19T22:25:01.502Z,88.40
2022-10-19T22:27:24.801Z,88.60
2022-10-19T22:29:49.739Z,88.60
2022-10-19T22:32:13.009Z,88.90
2022-10-19T22:34:36.598Z,89.00
2022-10-19T22:37:00.188Z,88.80
2022-10-19T22:39:26.946Z,88.70
2022-10-19T22:41:51.386Z,89.30
2022-10-19T22:44:14.753Z,89.30
2022-10-19T22:46:39.426Z,88.90
2022-10-19T22:49:02.743Z,89.10
2022-10-19T22:51:26.137Z,89.20
2022-10-19T22:53:49.370Z,89.00
2022-10-19T22:56:13.529Z,89.30
2022-10-19T22:58:36.756Z,89.10
2022-10-19T23:01:06.739Z,89.60
2022-10-19T23:03:31.554Z,89.40
2022-10-19T23:05:55.140Z,89.40
2022-10-19T23:08:18.826Z,89.50
2022-10-19T23:10:42.095Z,89.50
2022-10-19T23:13:05.324Z,89.40
2022-10-19T23:15:28.585Z,89.60
2022-10-19T23:17:51.832Z,89.40
2022-10-19T23:20:16.862Z,89.90
2022-10-19T23:22:40.255Z,90.00
2022-10-19T23:25:03.474Z,89.70
2022-10-19T23:27:26.788Z,89.80
2022-10-19T23:29:50.111Z,89.60
2022-10-19T23:32:13.355Z,89.40
2022-10-19T23:34:36.616Z,89.90
2022-10-19T23:37:01.215Z,89.60
2022-10-19T23:39:24.437Z,89.90
2022-10-19T23:41:47.682Z,89.90
2022-10-19T23:44:11.799Z,90.00
2022-10-19T23:46:35.063Z,90.00
2022-10-19T23:48:58.310Z,90.10
2022-10-19T23:51:23.015Z,89.90
2022-10-19T23:53:50.396Z,90.10
2022-10-19T23:56:17.095Z,90.30
2022-10-19T23:58:40.426Z,90.30
